Site Report
Select Start Month: Select End Month:
Missoula Marathon (Jul 10, 2010 - Jul 12, 2010)
Missoula Marathon (MTMCMISM) Missoula, MT (USA) Lat,Long: 46.87215,-113.99400 Map Elevation: 3200 feet 45 species 1 trip (0 non-trip sightings)
The 2010 Missoula marathon course from Frenchtown to Missoula in western Montana. The course follows Mullan Road SE from Frenchtown through open residential farmland for 9 miles, jogs W across the river on Kona Ranch Road and runs SE above the river on a wooded hillside before crossing back again on River Pines Rd at about mile 16. The last 10 miles into town are increasingly residential.
Species Sightings Trips First Date Last Date Avg/Sighting Avg/Trip Max Ct
Ring-necked Pheasant 1   1 07/11/2010 07/11/2010 1.0 1.0 1
Osprey 1   1 07/11/2010 07/11/2010 3.0 3.0 3
Spotted Sandpiper 1   1 07/11/2010 07/11/2010 1.0 1.0 1
Rock Pigeon 1   1 07/11/2010 07/11/2010 5.0 5.0 5
Eurasian Collared-Dove 1   1 07/11/2010 07/11/2010 1.0 1.0 1
Mourning Dove 1   1 07/11/2010 07/11/2010 1.0 1.0 1
Lewis's Woodpecker 1   1 07/11/2010 07/11/2010 4.0 4.0 4
Hairy Woodpecker 1   1 07/11/2010 07/11/2010 2.0 2.0 2
Northern Flicker 1   1 07/11/2010 07/11/2010 2.0 2.0 2
Western Wood-Pewee 1   1 07/11/2010 07/11/2010 10.0 10.0 10
Hammond's Flycatcher 1   1 07/11/2010 07/11/2010 2.0 2.0 2
Cordilleran Flycatcher 1   1 07/11/2010 07/11/2010 2.0 2.0 2
Western Kingbird 1   1 07/11/2010 07/11/2010 2.0 2.0 2
Cassin's Vireo 1   1 07/11/2010 07/11/2010 1.0 1.0 1
Warbling Vireo 1   1 07/11/2010 07/11/2010 1.0 1.0 1
Black-billed Magpie 1   1 07/11/2010 07/11/2010 2.0 2.0 2
American Crow 1   1 07/11/2010 07/11/2010 1.0 1.0 1
Common Raven 1   1 07/11/2010 07/11/2010 1.0 1.0 1
Violet-green Swallow 1   1 07/11/2010 07/11/2010 15.0 15.0 15
Cliff Swallow 1   1 07/11/2010 07/11/2010 30.0 30.0 30
Black-capped Chickadee 1   1 07/11/2010 07/11/2010 5.0 5.0 5
Chestnut-backed Chickadee 1   1 07/11/2010 07/11/2010 1.0 1.0 1
Red-breasted Nuthatch 1   1 07/11/2010 07/11/2010 3.0 3.0 3
House Wren 1   1 07/11/2010 07/11/2010 5.0 5.0 5
American Robin 1   1 07/11/2010 07/11/2010 3.0 3.0 3
European Starling 1   1 07/11/2010 07/11/2010 10.0 10.0 10
Cedar Waxwing 1   1 07/11/2010 07/11/2010 8.0 8.0 8
Yellow Warbler 1   1 07/11/2010 07/11/2010 20.0 20.0 20
Yellow-rumped Warbler 1   1 07/11/2010 07/11/2010 1.0 1.0 1
Yellow-breasted Chat 1   1 07/11/2010 07/11/2010 1.0 1.0 1
Western Tanager 1   1 07/11/2010 07/11/2010 3.0 3.0 3
Spotted Towhee 1   1 07/11/2010 07/11/2010 2.0 2.0 2
Chipping Sparrow 1   1 07/11/2010 07/11/2010 3.0 3.0 3
Savannah Sparrow 1   1 07/11/2010 07/11/2010 4.0 4.0 4
Song Sparrow 1   1 07/11/2010 07/11/2010 3.0 3.0 3
Lazuli Bunting 1   1 07/11/2010 07/11/2010 10.0 10.0 10
Red-winged Blackbird 1   1 07/11/2010 07/11/2010 4.0 4.0 4
Western Meadowlark 1   1 07/11/2010 07/11/2010 3.0 3.0 3
Brewer's Blackbird 1   1 07/11/2010 07/11/2010 5.0 5.0 5
Brown-headed Cowbird 1   1 07/11/2010 07/11/2010 3.0 3.0 3
House Finch 1   1 07/11/2010 07/11/2010 4.0 4.0 4
Red Crossbill 1   1 07/11/2010 07/11/2010 1.0 1.0 1
Pine Siskin 1   1 07/11/2010 07/11/2010 2.0 2.0 2
American Goldfinch 1   1 07/11/2010 07/11/2010 10.0 10.0 10
House Sparrow 1   1 07/11/2010 07/11/2010 10.0 10.0 10
Home